Terminal Aerodrome Forecast
Issued by NWS

Home | Current Version | Previous Version | Text Only | Print | Product List | Glossary On
Versions: 1 2 3 4 5 6 7 8 9 10 11 12 13 14 15 16 17 18 19 20 21 22 23 24 25 26 27 28 29 30 31 32 33
000
FTUS41 KBOX 050538
TAFFMH
TAF
KFMH 050538Z 0506/0606 25005KT 3SM BR BKN002
     FM050900 27004KT 6SM BR SCT250
     FM051200 00000KT P6SM SCT250
     FM051500 25006KT P6SM FEW250
     FM052100 23010KT P6SM FEW250
     FM060100 27005KT P6SM SCT070=

USA.gov is the U.S. government's official web portal to all federal, state and local government web resources and services.